This is the latest recevied weather packets stored in our database for station/object CT1ETE-13. If no packets are shown the sender has not sent any weather packets the latest 10 day(s).
| Time | Temp. | Humidity | Pressure | Rain* | Wind** | Luminosity | Snow |
|---|---|---|---|---|---|---|---|
| 1788031541 | 20.56° C | 81% | 1020.2 hPa | 0 mm | - | 1508 W/m² | - |
| 1788030641 | 21.11° C | 80% | 1020.1 hPa | 0 mm | - | 1505 W/m² | - |
| 1788029741 | 21.11° C | 79% | 1020.1 hPa | 0 mm | - | 1499 W/m² | - |
| 1788028901 | 21.67° C | 77% | 1020.1 hPa | 0 mm | - | 1491 W/m² | - |
| 1788027940 | 22.22° C | 76% | 1020.1 hPa | 0 mm | - | 1485 W/m² | - |
| 1788027040 | 22.22° C | 75% | 1020.1 hPa | 0 mm | - | 1484 W/m² | - |
| 1788026141 | 22.78° C | 72% | 1020.2 hPa | 0 mm | - | 1452 W/m² | - |
| 1788025240 | 22.78° C | 71% | 1020.1 hPa | 0 mm | - | 1438 W/m² | - |
| 1788024342 | 23.89° C | 69% | 1020.2 hPa | 0 mm | - | 1419 W/m² | - |
| 1788023434 | 23.33° C | 70% | 1020.2 hPa | 0 mm | - | 1426 W/m² | - |
| 1788022534 | 22.78° C | 72% | 1020.3 hPa | 0 mm | - | 1436 W/m² | - |
| 1788021633 | 22.78° C | 71% | 1020.4 hPa | 0 mm | - | 1434 W/m² | - |
| 1788020732 | 23.33° C | 71% | 1020.4 hPa | 0 mm | - | 1429 W/m² | - |
| 1788019832 | 23.33° C | 71% | 1020.4 hPa | 0 mm | - | 1426 W/m² | - |
| 1788018932 | 23.33° C | 71% | 1020.5 hPa | 0 mm | - | 1429 W/m² | - |
| 1788018032 | 23.33° C | 71% | 1020.6 hPa | 0 mm | - | 1427 W/m² | - |
| 1788017133 | 23.33° C | 70% | 1020.7 hPa | 0 mm | - | 1422 W/m² | - |
| 1788016233 | 23.33° C | 69% | 1020.7 hPa | 0 mm | - | 1417 W/m² | - |
| 1788015392 | 23.89° C | 68% | 1020.8 hPa | 0 mm | - | 1408 W/m² | - |
| 1788014432 | 23.89° C | 66% | 1020.9 hPa | 0 mm | - | 1399 W/m² | - |
| 1788013592 | 24.44° C | 65% | 1020.9 hPa | 0 mm | - | 1390 W/m² | - |
| 1788012632 | 24.44° C | 65% | 1020.9 hPa | 0 mm | - | 1387 W/m² | - |
| 1788011732 | 24.44° C | 64% | 1021.1 hPa | 0 mm | - | 1383 W/m² | - |
| 1788010832 | 24.44° C | 65% | 1021.1 hPa | 0 mm | - | 1387 W/m² | - |
| 1788009929 | 23.89° C | 64% | 1021.2 hPa | 0 mm | - | 1382 W/m² | - |
* Rain latest hour (hover to see other rain measurements)
** Current wind speed in m/s (hover to see current wind gust speed)